Terminal Aerodrome Forecast
Issued by NWS Shreveport, LA

Home | Current Version | Previous Version | Text Only | Print | Product List | Glossary On
Versions: 1 2 3 4 5 6 7 8 9 10 11 12 13 14 15 16 17 18 19 20 21
000
FTUS44 KSHV 061729
TAFSHV
TAF
KSHV 061729Z 0618/0718 21012G18KT P6SM SCT035 BKN250
     FM070000 18007KT P6SM SCT045 SCT250
      TEMPO 0710/0714 5SM BR BKN008
     FM071400 18007KT 5SM BR BKN008
     FM071500 19010KT P6SM BKN015
     FM071700 19012KT P6SM SCT035 SCT250=

USA.gov is the U.S. government's official web portal to all federal, state and local government web resources and services.